^^

Weather Underground History

Daily Summary for March 11, 2014 Units:  Metric    English   Both
Daily Weekly Monthly Yearly Custom
  High: Low: Average:
Temperature: 11 °C 2 °C 5.6 °C
Dew Point: 6 °C 2 °C 2.9 °C
Humidity: 95% 58% 84%
Wind Speed: 24km/h 0km/h 10.8km/h
Wind Gust: 24km/h - -
Wind- - ENE
Pressure: 1036.57 hPa 1034.54 hPa -
Precipitation: 0 mm    
Historical Graphs
 
 
Tabular Data for March 11, 2014
Time Temperature Dew Point Pressure Wind Wind Speed Wind Gust Humidity Rainfall Rate (Hourly) solar
00:03 3 °C 3 °C 1034.54 hPa NE 11 km/h 11 km/h 93% 0 mm 0 W/m2
00:08 3 °C 3 °C 1034.54 hPa NE 6 km/h 6 km/h 93% 0 mm 0 W/m2
00:13 3 °C 3 °C 1034.54 hPa E 13 km/h 13 km/h 93% 0 mm 0 W/m2
00:18 3 °C 3 °C 1034.54 hPa NNE 11 km/h 11 km/h 93% 0 mm 0 W/m2
00:23 3 °C 3 °C 1034.88 hPa E 11 km/h 11 km/h 94% 0 mm 0 W/m2
00:28 3 °C 3 °C 1034.54 hPa E 11 km/h 11 km/h 93% 0 mm 0 W/m2
00:33 3 °C 3 °C 1034.88 hPa NE 11 km/h 11 km/h 94% 0 mm 0 W/m2
00:38 3 °C 3 °C 1034.54 hPa NE 13 km/h 13 km/h 94% 0 mm 0 W/m2
00:43 3 °C 3 °C 1034.88 hPa E 17 km/h 17 km/h 94% 0 mm 0 W/m2
00:48 3 °C 3 °C 1034.88 hPa ENE 11 km/h 11 km/h 94% 0 mm 0 W/m2
00:53 3 °C 3 °C 1034.88 hPa ENE 10 km/h 10 km/h 94% 0 mm 0 W/m2
00:58 3 °C 3 °C 1034.88 hPa ENE 9 km/h 9 km/h 94% 0 mm 0 W/m2
01:03 3 °C 3 °C 1034.88 hPa E 11 km/h 11 km/h 94% 0 mm 0 W/m2
01:08 3 °C 2 °C 1034.88 hPa ENE 11 km/h 11 km/h 94% 0 mm 0 W/m2
01:13 3 °C 2 °C 1034.88 hPa NE 11 km/h 11 km/h 94% 0 mm 0 W/m2
01:18 3 °C 2 °C 1034.88 hPa NNE 17 km/h 17 km/h 94% 0 mm 0 W/m2
01:23 3 °C 2 °C 1034.88 hPa NE 13 km/h 13 km/h 94% 0 mm 0 W/m2
01:28 3 °C 2 °C 1034.54 hPa ENE 11 km/h 11 km/h 94% 0 mm 0 W/m2
01:33 3 °C 2 °C 1034.54 hPa ENE 13 km/h 13 km/h 94% 0 mm 0 W/m2
01:38 3 °C 2 °C 1034.54 hPa NNE 9 km/h 9 km/h 94% 0 mm 0 W/m2
01:43 3 °C 2 °C 1034.88 hPa ENE 7 km/h 7 km/h 94% 0 mm 0 W/m2
01:48 3 °C 2 °C 1034.54 hPa E 8 km/h 8 km/h 94% 0 mm 0 W/m2
01:53 3 °C 2 °C 1034.54 hPa NE 9 km/h 9 km/h 94% 0 mm 0 W/m2
01:58 3 °C 2 °C 1034.54 hPa NE 11 km/h 11 km/h 94% 0 mm 0 W/m2
02:03 3 °C 2 °C 1034.54 hPa ENE 11 km/h 11 km/h 94% 0 mm 0 W/m2
02:08 3 °C 2 °C 1034.54 hPa NE 13 km/h 13 km/h 94% 0 mm 0 W/m2
02:13 3 °C 2 °C 1034.54 hPa ENE 13 km/h 13 km/h 94% 0 mm 0 W/m2
02:18 3 °C 2 °C 1034.54 hPa E 11 km/h 11 km/h 94% 0 mm 0 W/m2
02:23 3 °C 2 °C 1034.54 hPa ENE 10 km/h 10 km/h 94% 0 mm 0 W/m2
02:28 3 °C 2 °C 1034.54 hPa NE 10 km/h 10 km/h 94% 0 mm 0 W/m2
02:33 3 °C 2 °C 1034.88 hPa ENE 7 km/h 7 km/h 94% 0 mm 0 W/m2
02:38 3 °C 2 °C 1034.88 hPa E 13 km/h 13 km/h 94% 0 mm 0 W/m2
02:43 3 °C 2 °C 1034.88 hPa E 7 km/h 7 km/h 94% 0 mm 0 W/m2
02:48 3 °C 2 °C 1034.88 hPa E 15 km/h 15 km/h 94% 0 mm 0 W/m2
02:53 3 °C 2 °C 1034.88 hPa E 15 km/h 15 km/h 94% 0 mm 0 W/m2
02:58 3 °C 2 °C 1034.88 hPa E 10 km/h 10 km/h 94% 0 mm 0 W/m2
03:03 3 °C 2 °C 1034.88 hPa ENE 13 km/h 13 km/h 94% 0 mm 0 W/m2
03:08 3 °C 2 °C 1034.54 hPa ENE 6 km/h 6 km/h 94% 0 mm 0 W/m2
03:13 3 °C 2 °C 1034.54 hPa ENE 7 km/h 7 km/h 94% 0 mm 0 W/m2
03:18 3 °C 2 °C 1034.88 hPa ENE 13 km/h 13 km/h 94% 0 mm 0 W/m2
03:23 3 °C 2 °C 1034.88 hPa ENE 9 km/h 9 km/h 94% 0 mm 0 W/m2
03:28 3 °C 2 °C 1034.88 hPa ENE 10 km/h 10 km/h 94% 0 mm 0 W/m2
03:33 2 °C 2 °C 1034.88 hPa E 9 km/h 9 km/h 94% 0 mm 0 W/m2
03:38 2 °C 2 °C 1034.88 hPa ENE 7 km/h 7 km/h 94% 0 mm 0 W/m2
03:43 2 °C 2 °C 1034.88 hPa E 11 km/h 11 km/h 94% 0 mm 0 W/m2
03:48 2 °C 2 °C 1035.22 hPa NE 7 km/h 7 km/h 94% 0 mm 0 W/m2
03:53 3 °C 2 °C 1034.88 hPa E 7 km/h 7 km/h 95% 0 mm 0 W/m2
03:58 3 °C 2 °C 1034.88 hPa ENE 6 km/h 6 km/h 95% 0 mm 0 W/m2
04:03 3 °C 2 °C 1034.88 hPa E 7 km/h 9 km/h 95% 0 mm 0 W/m2
04:08 3 °C 2 °C 1034.88 hPa E 7 km/h 7 km/h 94% 0 mm 0 W/m2
04:13 3 °C 2 °C 1035.22 hPa ENE 6 km/h 6 km/h 94% 0 mm 0 W/m2
04:18 3 °C 2 °C 1034.88 hPa ENE 4 km/h 4 km/h 94% 0 mm 0 W/m2
04:23 3 °C 2 °C 1034.88 hPa ENE 6 km/h 6 km/h 94% 0 mm 0 W/m2
04:28 3 °C 2 °C 1034.88 hPa ENE 9 km/h 9 km/h 94% 0 mm 0 W/m2
04:33 3 °C 2 °C 1034.88 hPa NNE 7 km/h 7 km/h 94% 0 mm 0 W/m2
04:38 3 °C 2 °C 1035.22 hPa NE 6 km/h 6 km/h 94% 0 mm 0 W/m2
04:43 3 °C 2 °C 1035.22 hPa ENE 7 km/h 7 km/h 94% 0 mm 0 W/m2
04:48 3 °C 2 °C 1035.22 hPa ENE 6 km/h 6 km/h 94% 0 mm 0 W/m2
04:53 3 °C 2 °C 1035.22 hPa ENE 7 km/h 7 km/h 94% 0 mm 0 W/m2
04:58 3 °C 2 °C 1035.22 hPa ENE 2 km/h   94% 0 mm 0 W/m2
05:03 3 °C 2 °C 1035.22 hPa NE 9 km/h 9 km/h 94% 0 mm 0 W/m2
05:08 3 °C 2 °C 1035.22 hPa NE 6 km/h 6 km/h 94% 0 mm 0 W/m2
05:13 3 °C 2 °C 1035.56 hPa E 11 km/h 11 km/h 94% 0 mm 0 W/m2
05:18 3 °C 2 °C 1035.56 hPa E 10 km/h 10 km/h 94% 0 mm 0 W/m2
05:23 3 °C 2 °C 1035.56 hPa ENE 9 km/h 9 km/h 94% 0 mm 0 W/m2
05:28 3 °C 2 °C 1035.56 hPa ENE 6 km/h 6 km/h 94% 0 mm 0 W/m2
05:33 3 °C 2 °C 1035.56 hPa NE 6 km/h 6 km/h 94% 0 mm 0 W/m2
05:38 3 °C 2 °C 1035.56 hPa E 9 km/h 9 km/h 94% 0 mm 0 W/m2
05:43 3 °C 2 °C 1035.56 hPa ENE 7 km/h 7 km/h 94% 0 mm 0 W/m2
05:48 3 °C 2 °C 1035.22 hPa ENE 9 km/h 9 km/h 94% 0 mm 0 W/m2
05:53 3 °C 2 °C 1035.22 hPa NE 7 km/h 7 km/h 94% 0 mm 0 W/m2
05:58 3 °C 2 °C 1035.22 hPa ENE 8 km/h 8 km/h 94% 0 mm 0 W/m2
06:03 3 °C 2 °C 1035.22 hPa ENE 6 km/h 6 km/h 94% 0 mm 0 W/m2
06:08 3 °C 2 °C 1035.22 hPa ENE 7 km/h 7 km/h 94% 0 mm 0 W/m2
06:13 3 °C 2 °C 1035.22 hPa ENE 7 km/h 7 km/h 94% 0 mm 0 W/m2
06:18 3 °C 2 °C 1035.22 hPa NNE 13 km/h 13 km/h 94% 0 mm 0 W/m2
06:23 3 °C 2 °C 1035.22 hPa ENE 7 km/h 7 km/h 94% 0 mm 0 W/m2
06:28 3 °C 2 °C 1035.22 hPa ENE 13 km/h 13 km/h 94% 0 mm 0 W/m2
06:33 3 °C 2 °C 1035.22 hPa ENE 7 km/h 7 km/h 94% 0 mm 5 W/m2
06:38 3 °C 2 °C 1035.56 hPa ENE 8 km/h 8 km/h 94% 0 mm 5 W/m2
06:43 2 °C 2 °C 1035.56 hPa E 7 km/h 7 km/h 94% 0 mm 9 W/m2
06:48 2 °C 2 °C 1035.56 hPa E 17 km/h 17 km/h 94% 0 mm 12 W/m2
06:53 2 °C 2 °C 1035.56 hPa ENE 13 km/h 13 km/h 94% 0 mm 14 W/m2
06:58 2 °C 2 °C 1035.56 hPa NE 9 km/h 9 km/h 94% 0 mm 16 W/m2
07:03 2 °C 2 °C 1035.9 hPa ENE 17 km/h 17 km/h 94% 0 mm 16 W/m2
07:06 2 °C 2 °C 1035.9 hPa NE 17 km/h 17 km/h 94% 0 mm 16 W/m2
07:11 2 °C 2 °C 1035.9 hPa ENE 11 km/h 11 km/h 94% 0 mm 23 W/m2
07:16 2 °C 2 °C 1035.9 hPa E 11 km/h 11 km/h 94% 0 mm 32 W/m2
07:21 3 °C 2 °C 1035.9 hPa ENE 9 km/h 9 km/h 94% 0 mm 47 W/m2
07:26 3 °C 2 °C 1035.9 hPa NE 2 km/h 2 km/h 95% 0 mm 58 W/m2
07:31 3 °C 2 °C 1036.23 hPa ENE 11 km/h 11 km/h 95% 0 mm 42 W/m2
07:36 3 °C 2 °C 1036.23 hPa E 9 km/h 9 km/h 95% 0 mm 77 W/m2
07:41 3 °C 2 °C 1035.9 hPa NE 9 km/h 9 km/h 95% 0 mm 70 W/m2
07:46 3 °C 2 °C 1035.9 hPa ENE 6 km/h 6 km/h 95% 0 mm 114 W/m2
07:51 3 °C 2 °C 1035.9 hPa NE 9 km/h 9 km/h 95% 0 mm 169 W/m2
07:56 3 °C 3 °C 1035.9 hPa E 13 km/h 13 km/h 95% 0 mm 171 W/m2
08:01 3 °C 3 °C 1035.9 hPa ENE 11 km/h 11 km/h 95% 0 mm 185 W/m2
08:06 3 °C 3 °C 1035.9 hPa ENE 7 km/h 7 km/h 95% 0 mm 132 W/m2
08:11 3 °C 3 °C 1035.9 hPa E 7 km/h 7 km/h 95% 0 mm 153 W/m2
08:16 3 °C 3 °C 1035.9 hPa ENE 9 km/h 9 km/h 94% 0 mm 132 W/m2
08:21 3 °C 3 °C 1035.9 hPa ENE 11 km/h 11 km/h 94% 0 mm 121 W/m2
08:26 3 °C 3 °C 1036.23 hPa ENE 17 km/h 17 km/h 94% 0 mm 121 W/m2
08:31 4 °C 3 °C 1036.23 hPa NE 11 km/h 11 km/h 94% 0 mm 148 W/m2
08:36 4 °C 3 °C 1036.23 hPa ENE 9 km/h 9 km/h 94% 0 mm 135 W/m2
08:41 4 °C 3 °C 1036.23 hPa ENE 11 km/h 11 km/h 94% 0 mm 146 W/m2
08:46 4 °C 3 °C 1036.23 hPa ENE 11 km/h 11 km/h 94% 0 mm 118 W/m2
08:51 4 °C 3 °C 1036.23 hPa NE 11 km/h 11 km/h 94% 0 mm 151 W/m2
08:56 4 °C 3 °C 1036.23 hPa E 13 km/h 13 km/h 94% 0 mm 163 W/m2
09:01 4 °C 3 °C 1036.23 hPa ENE 10 km/h 10 km/h 94% 0 mm 127 W/m2
09:06 4 °C 3 °C 1036.57 hPa ESE 11 km/h 11 km/h 94% 0 mm 95 W/m2
09:11 4 °C 3 °C 1036.23 hPa E 9 km/h 9 km/h 94% 0 mm 123 W/m2
09:16 4 °C 3 °C 1036.23 hPa E 15 km/h 15 km/h 93% 0 mm 223 W/m2
09:21 4 °C 4 °C 1036.23 hPa E 17 km/h 17 km/h 93% 0 mm 137 W/m2
09:26 5 °C 4 °C 1036.23 hPa E 13 km/h 13 km/h 93% 0 mm 320 W/m2
09:31 5 °C 4 °C 1036.23 hPa ESE 11 km/h 11 km/h 93% 0 mm 179 W/m2
09:36 5 °C 4 °C 1036.23 hPa E 14 km/h 14 km/h 92% 0 mm 183 W/m2
09:41 5 °C 4 °C 1036.23 hPa ESE 15 km/h 15 km/h 92% 0 mm 236 W/m2
09:46 5 °C 4 °C 1036.23 hPa ESE 19 km/h 19 km/h 92% 0 mm 399 W/m2
09:51 5 °C 4 °C 1036.23 hPa E 19 km/h 19 km/h 91% 0 mm 239 W/m2
09:56 6 °C 4 °C 1036.23 hPa E 11 km/h 11 km/h 91% 0 mm 243 W/m2
10:01 6 °C 4 °C 1036.23 hPa ENE 18 km/h 18 km/h 90% 0 mm 251 W/m2
10:06 6 °C 4 °C 1036.23 hPa ENE 16 km/h 16 km/h 89% 0 mm 178 W/m2
10:11 6 °C 4 °C 1036.23 hPa ENE 19 km/h 19 km/h 88% 0 mm 195 W/m2
10:16 6 °C 4 °C 1036.23 hPa ENE 13 km/h 13 km/h 88% 0 mm 675 W/m2
10:21 6 °C 4 °C 1036.23 hPa ENE 13 km/h 13 km/h 87% 0 mm 209 W/m2
10:26 6 °C 4 °C 1036.23 hPa ENE 13 km/h 13 km/h 87% 0 mm 659 W/m2
10:31 7 °C 4 °C 1036.23 hPa ENE 13 km/h 13 km/h 87% 0 mm 751 W/m2
10:36 7 °C 4 °C 1036.23 hPa ENE 19 km/h 19 km/h 84% 0 mm 248 W/m2
10:41 7 °C 4 °C 1036.23 hPa E 15 km/h 15 km/h 85% 0 mm 617 W/m2
10:46 7 °C 4 °C 1036.23 hPa E 11 km/h 23 km/h 84% 0 mm 380 W/m2
10:51 7 °C 4 °C 1036.23 hPa ENE 13 km/h 13 km/h 83% 0 mm 267 W/m2
10:56 7 °C 4 °C 1036.23 hPa ENE 17 km/h 17 km/h 83% 0 mm 158 W/m2
11:01 7 °C 4 °C 1036.23 hPa ENE 15 km/h 15 km/h 84% 0 mm 434 W/m2
11:06 7 °C 4 °C 1036.23 hPa NE 17 km/h 17 km/h 84% 0 mm 664 W/m2
11:11 7 °C 4 °C 1036.23 hPa NNE 13 km/h 13 km/h 84% 0 mm 408 W/m2
11:16 7 °C 4 °C 1036.23 hPa ESE 15 km/h 15 km/h 84% 0 mm 376 W/m2
11:21 7 °C 4 °C 1036.23 hPa ENE 13 km/h 13 km/h 84% 0 mm 376 W/m2
11:26 7 °C 4 °C 1036.23 hPa ENE 17 km/h 17 km/h 83% 0 mm 652 W/m2
11:31 7 °C 4 °C 1036.23 hPa E 13 km/h 13 km/h 83% 0 mm 666 W/m2
11:36 8 °C 4 °C 1036.23 hPa ENE 17 km/h 17 km/h 82% 0 mm 439 W/m2
11:41 8 °C 4 °C 1036.23 hPa NE 20 km/h 20 km/h 81% 0 mm 244 W/m2
11:46 8 °C 4 °C 1036.23 hPa ENE 17 km/h 17 km/h 82% 0 mm 708 W/m2
11:51 8 °C 5 °C 1035.9 hPa E 15 km/h 15 km/h 81% 0 mm 689 W/m2
11:56 8 °C 5 °C 1035.9 hPa ENE 11 km/h 11 km/h 81% 0 mm 199 W/m2
12:01 8 °C 4 °C 1035.9 hPa ENE 11 km/h 11 km/h 80% 0 mm 629 W/m2
12:06 8 °C 5 °C 1035.9 hPa ENE 11 km/h 11 km/h 81% 0 mm 626 W/m2
12:11 8 °C 5 °C 1035.9 hPa ENE 5 km/h 11 km/h 81% 0 mm 621 W/m2
12:16 8 °C 6 °C 1035.9 hPa ENE 11 km/h 11 km/h 81% 0 mm 605 W/m2
12:21 8 °C 6 °C 1035.9 hPa NE 13 km/h 13 km/h 80% 0 mm 613 W/m2
12:26 9 °C 5 °C 1035.9 hPa ENE 17 km/h 17 km/h 77% 0 mm 631 W/m2
12:31 9 °C 5 °C 1035.56 hPa ESE 17 km/h 17 km/h 77% 0 mm 603 W/m2
12:36 9 °C 5 °C 1035.56 hPa ENE 10 km/h 16 km/h 77% 0 mm 622 W/m2
12:41 9 °C 5 °C 1035.56 hPa ENE 19 km/h 19 km/h 76% 0 mm 613 W/m2
12:46 9 °C 5 °C 1035.56 hPa ENE 13 km/h 13 km/h 76% 0 mm 599 W/m2
12:51 9 °C 5 °C 1035.56 hPa ENE 19 km/h 19 km/h 76% 0 mm 578 W/m2
12:56 9 °C 5 °C 1035.56 hPa E 20 km/h 20 km/h 76% 0 mm 577 W/m2
13:01 9 °C 5 °C 1035.56 hPa ENE 19 km/h 19 km/h 75% 0 mm 585 W/m2
13:06 9 °C 5 °C 1035.56 hPa ENE 22 km/h 22 km/h 74% 0 mm 573 W/m2
13:11 9 °C 6 °C 1035.22 hPa E 22 km/h 22 km/h 75% 0 mm 589 W/m2
13:16 10 °C 5 °C 1035.22 hPa E 17 km/h 17 km/h 73% 0 mm 575 W/m2
13:21 10 °C 6 °C 1035.22 hPa E 17 km/h 17 km/h 73% 0 mm 566 W/m2
13:26 10 °C 6 °C 1035.22 hPa E 15 km/h 15 km/h 73% 0 mm 559 W/m2
13:31 10 °C 6 °C 1035.22 hPa E 19 km/h 19 km/h 72% 0 mm 552 W/m2
13:36 11 °C 5 °C 1035.22 hPa NE 15 km/h 15 km/h 69% 0 mm 555 W/m2
13:41 11 °C 4 °C 1035.22 hPa ESE 22 km/h 22 km/h 66% 0 mm 554 W/m2
13:46 11 °C 4 °C 1035.22 hPa E 19 km/h 19 km/h 65% 0 mm 545 W/m2
13:51 11 °C 4 °C 1035.22 hPa ESE 24 km/h 24 km/h 66% 0 mm 538 W/m2
13:56 11 °C 4 °C 1035.22 hPa ENE 19 km/h 19 km/h 66% 0 mm 529 W/m2
14:01 11 °C 4 °C 1035.22 hPa ENE 20 km/h 20 km/h 64% 0 mm 524 W/m2
14:06 11 °C 4 °C 1034.88 hPa E 15 km/h 15 km/h 66% 0 mm 517 W/m2
14:11 11 °C 4 °C 1034.88 hPa ENE 16 km/h 16 km/h 66% 0 mm 508 W/m2
14:16 11 °C 5 °C 1034.88 hPa NE 16 km/h 16 km/h 66% 0 mm 503 W/m2
14:21 11 °C 4 °C 1034.88 hPa ENE 19 km/h 19 km/h 65% 0 mm 490 W/m2
14:26 11 °C 4 °C 1034.88 hPa ENE 17 km/h 17 km/h 63% 0 mm 483 W/m2
14:31 11 °C 4 °C 1034.88 hPa E 19 km/h 19 km/h 63% 0 mm 476 W/m2
14:36 11 °C 4 °C 1034.88 hPa E 19 km/h 19 km/h 62% 0 mm 468 W/m2
14:41 11 °C 4 °C 1034.88 hPa E 15 km/h 15 km/h 63% 0 mm 454 W/m2
14:46 11 °C 4 °C 1034.88 hPa ESE 19 km/h 19 km/h 62% 0 mm 448 W/m2
14:51 11 °C 4 °C 1034.54 hPa ESE 19 km/h 19 km/h 62% 0 mm 436 W/m2
14:56 11 °C 4 °C 1034.88 hPa E 13 km/h 13 km/h 63% 0 mm 425 W/m2
15:01 11 °C 4 °C 1034.88 hPa NE 13 km/h 13 km/h 62% 0 mm 415 W/m2
15:06 11 °C 4 °C 1034.54 hPa E 11 km/h 11 km/h 64% 0 mm 401 W/m2
15:11 11 °C 3 °C 1034.54 hPa E 17 km/h 17 km/h 59% 0 mm 392 W/m2
15:16 11 °C 3 °C 1034.54 hPa E 17 km/h 17 km/h 59% 0 mm 387 W/m2
15:21 11 °C 4 °C 1034.88 hPa E 19 km/h 19 km/h 61% 0 mm 367 W/m2
15:26 11 °C 4 °C 1034.88 hPa ESE 19 km/h 19 km/h 61% 0 mm 359 W/m2
15:31 11 °C 3 °C 1034.88 hPa E 20 km/h 20 km/h 59% 0 mm 341 W/m2
15:36 11 °C 4 °C 1034.88 hPa E 19 km/h 19 km/h 60% 0 mm 334 W/m2
15:41 11 °C 3 °C 1034.54 hPa E 13 km/h 13 km/h 58% 0 mm 320 W/m2
15:46 11 °C 3 °C 1034.88 hPa ESE 19 km/h 19 km/h 59% 0 mm 308 W/m2
15:51 11 °C 3 °C 1034.54 hPa E 17 km/h 17 km/h 59% 0 mm 294 W/m2
15:56 11 °C 3 °C 1034.54 hPa E 19 km/h 19 km/h 58% 0 mm 278 W/m2
16:01 11 °C 3 °C 1034.54 hPa E 13 km/h 13 km/h 60% 0 mm 265 W/m2
16:06 11 °C 3 °C 1034.54 hPa ENE 13 km/h 13 km/h 60% 0 mm 244 W/m2
16:11 11 °C 3 °C 1034.88 hPa ESE 15 km/h 15 km/h 58% 0 mm 243 W/m2
16:16 11 °C 3 °C 1034.88 hPa ESE 15 km/h 15 km/h 58% 0 mm 243 W/m2
16:21 11 °C 3 °C 1034.54 hPa ENE 19 km/h 19 km/h 59% 0 mm 199 W/m2
16:26 11 °C 3 °C 1034.54 hPa E 10 km/h 13 km/h 59% 0 mm 181 W/m2
16:31 11 °C 3 °C 1034.54 hPa ESE 15 km/h 15 km/h 61% 0 mm 165 W/m2
16:36 11 °C 3 °C 1034.54 hPa E 13 km/h 13 km/h 61% 0 mm 149 W/m2
16:41 11 °C 3 °C 1034.54 hPa ESE 15 km/h 15 km/h 61% 0 mm 135 W/m2
16:46 11 °C 3 °C 1034.54 hPa E 9 km/h 9 km/h 61% 0 mm 120 W/m2
16:51 11 °C 3 °C 1034.54 hPa E 13 km/h 13 km/h 62% 0 mm 105 W/m2
16:56 11 °C 3 °C 1034.54 hPa E 11 km/h 11 km/h 62% 0 mm 90 W/m2
17:01 11 °C 3 °C 1034.88 hPa ESE 9 km/h 9 km/h 63% 0 mm 77 W/m2
17:06 10 °C 3 °C 1034.54 hPa E 11 km/h 11 km/h 63% 0 mm 63 W/m2
17:11 10 °C 3 °C 1034.54 hPa E 11 km/h 11 km/h 63% 0 mm 58 W/m2
17:16 10 °C 3 °C 1034.54 hPa E 11 km/h 11 km/h 64% 0 mm 42 W/m2
17:21 9 °C 3 °C 1034.88 hPa E 19 km/h 19 km/h 65% 0 mm 35 W/m2
17:26 9 °C 3 °C 1034.88 hPa E 11 km/h 11 km/h 66% 0 mm 26 W/m2
17:31 9 °C 3 °C 1034.88 hPa E 11 km/h 11 km/h 67% 0 mm 19 W/m2
17:36 9 °C 3 °C 1034.88 hPa E 9 km/h 9 km/h 67% 0 mm 18 W/m2
17:41 9 °C 3 °C 1034.88 hPa ESE 15 km/h 15 km/h 68% 0 mm 16 W/m2
17:46 9 °C 3 °C 1034.88 hPa E 6 km/h 6 km/h 68% 0 mm 12 W/m2
17:51 9 °C 4 °C 1034.88 hPa E 13 km/h 13 km/h 72% 0 mm 11 W/m2
17:56 8 °C 3 °C 1034.88 hPa E 9 km/h 9 km/h 70% 0 mm 7 W/m2
18:01 8 °C 3 °C 1034.88 hPa E 10 km/h 10 km/h 70% 0 mm 5 W/m2
18:06 8 °C 3 °C 1034.88 hPa E 11 km/h 11 km/h 71% 0 mm 0 W/m2
18:11 8 °C 3 °C 1034.88 hPa ESE 11 km/h 11 km/h 72% 0 mm 0 W/m2
18:16 8 °C 3 °C 1034.88 hPa ENE 9 km/h 9 km/h 73% 0 mm 0 W/m2
18:21 8 °C 3 °C 1034.88 hPa ESE 11 km/h 11 km/h 74% 0 mm 0 W/m2
18:26 8 °C 3 °C 1034.88 hPa E 11 km/h 11 km/h 74% 0 mm 0 W/m2
18:31 7 °C 3 °C 1035.22 hPa E 6 km/h 6 km/h 74% 0 mm 0 W/m2
18:36 7 °C 3 °C 1035.22 hPa ENE 6 km/h 6 km/h 75% 0 mm 0 W/m2
18:41 7 °C 3 °C 1035.22 hPa E 9 km/h 9 km/h 75% 0 mm 0 W/m2
18:46 7 °C 3 °C 1035.22 hPa ENE 6 km/h 6 km/h 75% 0 mm 0 W/m2
18:51 7 °C 3 °C 1035.22 hPa ENE 4 km/h 4 km/h 76% 0 mm 0 W/m2
18:56 7 °C 3 °C 1035.22 hPa ENE 6 km/h 6 km/h 77% 0 mm 0 W/m2
19:01 7 °C 3 °C 1035.22 hPa ENE 6 km/h 6 km/h 77% 0 mm 0 W/m2
19:06 7 °C 3 °C 1035.22 hPa E 6 km/h 6 km/h 78% 0 mm 0 W/m2
19:11 6 °C 3 °C 1035.22 hPa ENE 4 km/h 4 km/h 78% 0 mm 0 W/m2
19:16 6 °C 3 °C 1035.22 hPa ENE 3 km/h 3 km/h 78% 0 mm 0 W/m2
19:21 6 °C 3 °C 1035.22 hPa Calm     79% 0 mm 0 W/m2
19:26 6 °C 3 °C 1035.22 hPa ENE 6 km/h 6 km/h 79% 0 mm 0 W/m2
19:31 6 °C 3 °C 1035.22 hPa ENE 4 km/h   80% 0 mm 0 W/m2
19:36 6 °C 3 °C 1035.56 hPa ENE 6 km/h 6 km/h 80% 0 mm 0 W/m2
19:41 6 °C 3 °C 1035.56 hPa ENE 2 km/h 2 km/h 81% 0 mm 0 W/m2
19:46 6 °C 3 °C 1035.56 hPa ENE 2 km/h   81% 0 mm 0 W/m2
19:51 6 °C 2 °C 1035.22 hPa ENE 6 km/h 6 km/h 81% 0 mm 0 W/m2
19:56 6 °C 2 °C 1035.56 hPa ENE 2 km/h 2 km/h 82% 0 mm 0 W/m2
20:01 5 °C 2 °C 1035.56 hPa Calm     82% 0 mm 0 W/m2
20:06 5 °C 2 °C 1035.56 hPa ENE 6 km/h 6 km/h 82% 0 mm 0 W/m2
20:11 5 °C 2 °C 1035.56 hPa ENE 2 km/h 2 km/h 82% 0 mm 0 W/m2
20:16 5 °C 2 °C 1035.56 hPa NE 7 km/h 7 km/h 83% 0 mm 0 W/m2
20:21 5 °C 2 °C 1035.56 hPa NE 4 km/h 4 km/h 83% 0 mm 0 W/m2
20:26 5 °C 2 °C 1035.56 hPa ENE 7 km/h 7 km/h 84% 0 mm 0 W/m2
20:31 4 °C 2 °C 1035.56 hPa ENE 6 km/h 6 km/h 84% 0 mm 0 W/m2
20:36 4 °C 2 °C 1035.56 hPa ENE 6 km/h 6 km/h 84% 0 mm 0 W/m2
20:41 4 °C 2 °C 1035.56 hPa ENE 6 km/h 6 km/h 85% 0 mm 0 W/m2
20:46 4 °C 2 °C 1035.56 hPa ENE 4 km/h 4 km/h 85% 0 mm 0 W/m2
20:51 4 °C 2 °C 1035.56 hPa ENE 6 km/h 6 km/h 85% 0 mm 0 W/m2
20:56 4 °C 2 °C 1035.56 hPa ENE 2 km/h 2 km/h 86% 0 mm 0 W/m2
21:01 4 °C 2 °C 1035.56 hPa ENE 6 km/h 6 km/h 86% 0 mm 0 W/m2
21:06 4 °C 2 °C 1035.56 hPa ENE 8 km/h 8 km/h 87% 0 mm 0 W/m2
21:11 4 °C 2 °C 1035.56 hPa ENE 8 km/h 8 km/h 87% 0 mm 0 W/m2
21:16 4 °C 2 °C 1035.56 hPa ENE 6 km/h 6 km/h 88% 0 mm 0 W/m2
21:21 4 °C 2 °C 1035.56 hPa ENE 9 km/h 9 km/h 88% 0 mm 0 W/m2
21:26 4 °C 2 °C 1035.9 hPa ENE 6 km/h 6 km/h 89% 0 mm 0 W/m2
21:31 4 °C 2 °C 1035.9 hPa ENE 6 km/h 6 km/h 89% 0 mm 0 W/m2
21:36 4 °C 2 °C 1035.9 hPa ENE 6 km/h 6 km/h 89% 0 mm 0 W/m2
21:44 4 °C 2 °C 1035.9 hPa ENE 6 km/h 6 km/h 90% 0 mm 0 W/m2
21:49 4 °C 2 °C 1035.56 hPa ENE 2 km/h 2 km/h 90% 0 mm 0 W/m2
21:54 4 °C 2 °C 1035.9 hPa NE 6 km/h 6 km/h 90% 0 mm 0 W/m2
21:59 4 °C 2 °C 1035.56 hPa ENE 7 km/h 7 km/h 90% 0 mm 0 W/m2
22:04 4 °C 2 °C 1035.56 hPa ENE 6 km/h 6 km/h 91% 0 mm 0 W/m2
22:09 3 °C 2 °C 1035.56 hPa NE 11 km/h 11 km/h 91% 0 mm 0 W/m2
22:14 3 °C 2 °C 1035.56 hPa ENE 9 km/h 9 km/h 91% 0 mm 0 W/m2
22:19 3 °C 2 °C 1035.56 hPa ENE 10 km/h 10 km/h 91% 0 mm 0 W/m2
22:24 3 °C 2 °C 1035.56 hPa ENE 6 km/h 6 km/h 91% 0 mm 0 W/m2
22:29 3 °C 2 °C 1035.56 hPa ENE 6 km/h 6 km/h 91% 0 mm 0 W/m2
22:34 3 °C 2 °C 1035.56 hPa ENE 6 km/h 6 km/h 91% 0 mm 0 W/m2
22:39 3 °C 2 °C 1035.56 hPa ENE 9 km/h 9 km/h 91% 0 mm 0 W/m2
22:44 3 °C 2 °C 1035.56 hPa ENE 6 km/h 6 km/h 92% 0 mm 0 W/m2
22:49 3 °C 2 °C 1035.56 hPa ENE 7 km/h 7 km/h 92% 0 mm 0 W/m2
22:54 3 °C 2 °C 1035.56 hPa NNE 11 km/h 11 km/h 92% 0 mm 0 W/m2
22:59 3 °C 2 °C 1035.56 hPa NE 6 km/h 6 km/h 92% 0 mm 0 W/m2
23:04 3 °C 2 °C 1035.56 hPa NE 5 km/h 5 km/h 92% 0 mm 0 W/m2
23:09 3 °C 2 °C 1035.56 hPa NE 4 km/h 4 km/h 92% 0 mm 0 W/m2
23:14 3 °C 2 °C 1035.56 hPa NE 7 km/h 7 km/h 92% 0 mm 0 W/m2
23:19 3 °C 2 °C 1035.56 hPa NE 4 km/h 4 km/h 92% 0 mm 0 W/m2
23:24 3 °C 2 °C 1035.22 hPa Calm     92% 0 mm 0 W/m2
23:29 3 °C 2 °C 1035.22 hPa NE 6 km/h 6 km/h 92% 0 mm 0 W/m2
23:34 3 °C 2 °C 1035.22 hPa ENE 6 km/h 6 km/h 93% 0 mm 0 W/m2
23:39 3 °C 2 °C 1035.22 hPa ENE 8 km/h 8 km/h 93% 0 mm 0 W/m2
23:44 3 °C 2 °C 1035.22 hPa ENE 6 km/h 6 km/h 93% 0 mm 0 W/m2
23:49 3 °C 2 °C 1035.22 hPa E 10 km/h 10 km/h 93% 0 mm 0 W/m2
23:54 3 °C 2 °C 1035.22 hPa ENE 7 km/h 7 km/h 93% 0 mm 0 W/m2
23:59 3 °C 2 °C 1035.22 hPa NE 6 km/h 6 km/h 93% 0 mm 0 W/m2
Compliments of Weather Underground - 4 mb